Выборг, Russia

19 02, 2017 21:36 MSK (GMT +0300)
Utti Air Base | | Change Station

В.н.у.м. 328 ft 60.90 °N, 26.93 °E | Updated 16 minutes ago

Пасмурно
Пасмурно
37 °F
Ощущается Как 29 °F
С
14
Ветер переменчевый Ветер от Ю-З

Сегодня
Высокий -- | Низкий -- °F
--% Вероятн. осадков
Вчера
Высокий -- | Низкий -- °F
Precip. -- дюймов
Давление 29.21 дюймов
Видимость 6.2 милиь
Облачность Пасмурно 400 ft
Температура с учетом ветра 29 °F
Точка Росы 36 °F
Влажность воздуха 93%
Дождь 0.00 дюймов
Глубина снега Нет в наличии.
8:34 AM 6:04 PM
Четвертая четверть, 41% visible
METAR EFUT 191820Z AUTO 22012KT 9999 OVC004 03/02 Q0989
Давление 29.21 дюймов
Видимость 6.2 милиь
Облачность Пасмурно 400 ft
Температура с учетом ветра 29 °F
Точка Росы 36 °F
Влажность воздуха 93%
Дождь 0.00 дюймов
Глубина снега Нет в наличии.
8:34 AM 6:04 PM
Четвертая четверть, 41% visible
METAR EFUT 191820Z AUTO 22012KT 9999 OVC004 03/02 Q0989

Get Your Daily Forecast Email!

Thanks for signing up!

Be on the lookout for a verification email in your inbox.

You'll start receiving the daily forecast at 8 AM.

×

10-Day Weather Forecast

×

Almanac

Астрономические явления

Feb. 19, 2017 Восход Закат
Настоящее время
Гражданские сумерки
Навигационные сумерки
Астрономические сумерки
Луна
Длительность светового времени
Продолжительность Дня
Tomorrow will be .
, % of the Moon is Illuminated

Сегодняшние Экстремальные Показания

Country Highs Country Lows

Community

WunderPhotos

Upload Photos

1,962,540 фотографии загружены!

WunderBlog® & News

Nearby

Качество воздуха

  Качество воздуха Индекс AQ Загрязнитель
Not available.

Глубина Снега

Station Depth Высота над уровнем моря

Сейсмическая активность

Город Distance Mag. Time & Date
Minimum magnitude displayed is 2.5.

Температура Прибрежных Вод

Место Температура

Stations

Ближайшие Погодные Станции

Местонахождение Темп. Температура с учетом ветра Точка Росы Влажность воздуха Ветер Precip. В.н.у.м. Последняя сводка Тип